Augusta, Michigan
Current Conditions -  °F | °C
As of 8:17 AM on Friday 31 Oct 2014 (Local Time) from KBTL Reporting Station
Light Rain Light Rain  
Wind Chill: 33°   Ceiling: 1200
Heat Index: 40°   Visibility: 10mi
Dew Point: 35°   Wind: 13mph
Humidity: 83%   Direction: 320°NW
Pressure: 29.93"   Gusts: NA
Location:  42.34°N, 85.35°W
Report Text: KBTL 311217Z 32011KT 10SM -RA BKN012 BKN025 OVC038 04/02 A2993 RMK AO2 P0000 T00440017
Loading
Personal Weather Stations






























Interactive Weather Map
Tropical Storm Tracking
New forecast layout! Learn more

10-Day Weather Forecast

Advertisements
Track Severe Weather on mobile